Time;durP1;ratioP1;P1;durP2;ratioP2;P2;SDS_P1;SDS_P2;PMS_P1;PMS_P2;Temp;Humidity;BMP_temperature;BMP_pressure;BME280_temperature;BME280_humidity;BME280_pressure;Samples;Min_cycle;Max_cycle;Signal;HPM_P1;HPM_P2
2021/05/08 00:01:08;;;;;;;13.02;5.78;;;2.70;99.90;;;1.49;79.17;97802.31;4959768;28;20500;-66
2021/05/08 00:03:54;;;;;;;12.98;5.60;;;2.70;99.90;;;1.46;79.26;97802.31;4944121;29;20128;-66
2021/05/08 00:06:41;;;;;;;15.25;5.18;;;2.80;99.90;;;1.43;79.39;97797.19;4919867;29;20180;-66
2021/05/08 00:09:28;;;;;;;9.93;4.95;;;2.70;99.90;;;1.48;79.10;97803.13;4931862;29;20516;-66
2021/05/08 00:12:15;;;;;;;11.18;5.40;;;2.60;99.90;;;1.43;79.23;97809.97;4932010;29;20428;-66
2021/05/08 00:15:03;;;;;;;12.68;5.97;;;2.50;99.90;;;1.41;79.29;97809.97;4932146;29;20457;-66
2021/05/08 00:17:49;;;;;;;11.23;6.00;;;2.50;99.90;;;1.31;79.98;97795.53;4931504;29;20100;-66
2021/05/08 00:20:37;;;;;;;11.63;5.85;;;2.50;99.90;;;1.24;80.15;97804.91;4932075;29;20071;-66
2021/05/08 00:23:24;;;;;;;12.50;6.53;;;2.50;99.90;;;1.13;80.52;97811.75;4932160;29;20488;-66
2021/05/08 00:26:11;;;;;;;10.80;6.32;;;2.50;99.90;;;1.10;81.15;97811.75;4932888;29;20055;-66
2021/05/08 00:28:58;;;;;;;11.85;5.57;;;2.50;99.90;;;1.40;79.64;97804.88;4931269;29;20416;-66
2021/05/08 00:31:45;;;;;;;9.70;5.20;;;2.50;99.90;;;1.33;80.06;97816.00;4931233;29;20118;-66
2021/05/08 00:34:32;;;;;;;9.35;5.45;;;2.40;99.90;;;1.13;80.68;97810.91;4939538;29;20051;-66
2021/05/08 00:37:18;;;;;;;10.02;5.55;;;2.40;99.90;;;0.99;81.40;97819.44;4953428;29;20098;-66
2021/05/08 00:40:06;;;;;;;10.60;4.97;;;2.40;99.90;;;0.94;81.79;97802.41;4952693;29;20491;-66
2021/05/08 00:42:54;;;;;;;9.15;5.38;;;2.40;99.90;;;0.84;82.24;97809.22;4921979;29;20063;-66
2021/05/08 00:45:41;;;;;;;10.15;5.25;;;2.30;99.90;;;0.90;82.08;97800.69;4935252;29;20444;-66
2021/05/08 00:48:29;;;;;;;9.98;5.05;;;2.30;99.90;;;0.72;82.45;97794.75;4946611;29;20040;-66
2021/05/08 00:51:16;;;;;;;10.10;5.00;;;2.20;99.90;;;0.70;83.08;97805.81;4921092;29;20103;-66
2021/05/08 00:54:03;;;;;;;12.38;5.90;;;2.20;99.90;;;0.66;83.02;97804.94;4934253;29;20047;-66
2021/05/08 00:56:49;;;;;;;11.18;5.50;;;2.20;99.90;;;0.60;83.58;97803.25;4939546;28;20051;-66
2021/05/08 00:59:36;;;;;;;10.02;5.40;;;2.10;99.90;;;0.65;83.53;97804.97;4958577;28;20147;-66
2021/05/08 01:02:24;;;;;;;11.43;5.78;;;2.10;99.90;;;0.86;82.42;97797.28;4934887;29;20575;-66
2021/05/08 01:05:13;;;;;;;9.68;5.10;;;2.00;99.90;;;0.67;83.07;97793.88;4944053;29;20036;-66
2021/05/08 01:08:05;;;;;;;11.50;5.57;;;2.00;99.90;;;0.75;82.75;97784.53;4933850;29;20543;-66
2021/05/08 01:10:52;;;;;;;9.88;5.15;;;1.90;99.90;;;0.73;82.50;97778.56;4927170;29;20055;-66
2021/05/08 01:13:39;;;;;;;9.48;5.07;;;1.90;99.90;;;0.58;83.61;97776.84;4939296;29;20054;-66
2021/05/08 01:16:26;;;;;;;7.97;4.68;;;1.90;99.90;;;0.58;83.55;97768.34;4939082;29;20051;-66
2021/05/08 01:19:17;;;;;;;10.85;5.18;;;1.90;99.90;;;0.53;83.72;97770.91;4937452;29;20047;-66
2021/05/08 01:22:04;;;;;;;9.63;5.57;;;2.00;99.90;;;0.56;83.60;97773.44;4937694;29;20043;-66
2021/05/08 01:24:50;;;;;;;11.25;5.13;;;2.00;99.90;;;0.56;83.53;97772.59;4934388;29;20449;-66
2021/05/08 01:27:52;;;;;;;7.38;4.40;;;2.00;99.90;;;0.77;82.63;97771.75;4934831;29;20575;-66
2021/05/08 01:30:39;;;;;;;13.15;5.63;;;1.90;99.90;;;0.56;83.39;97767.50;4933279;29;20126;-66
2021/05/08 01:33:26;;;;;;;10.73;4.75;;;1.90;99.90;;;0.60;83.56;97770.03;4933273;29;20091;-66
2021/05/08 01:36:13;;;;;;;8.32;4.93;;;2.00;99.90;;;0.55;83.83;97768.34;4940674;28;20131;-66
2021/05/08 01:39:01;;;;;;;9.50;5.05;;;2.00;99.90;;;0.48;83.82;97767.50;4934665;29;20484;-66
2021/05/08 01:41:48;;;;;;;8.18;4.95;;;2.00;99.90;;;0.53;83.54;97762.41;4921804;29;20077;-66
2021/05/08 01:44:36;;;;;;;11.93;4.72;;;2.00;99.90;;;0.55;83.40;97760.69;4940342;28;20047;-66
2021/05/08 01:47:23;;;;;;;8.10;4.93;;;1.90;99.90;;;0.43;83.87;97758.97;4944264;28;20106;-67
2021/05/08 01:50:15;;;;;;;8.57;5.22;;;2.00;99.90;;;0.34;84.26;97761.50;4937547;29;20690;-66
2021/05/08 01:53:01;;;;;;;10.52;4.93;;;1.90;99.90;;;0.32;84.40;97760.66;4937900;28;20074;-66
2021/05/08 01:55:50;;;;;;;10.13;4.45;;;1.90;99.90;;;0.37;84.08;97759.81;4932685;29;20059;-66
2021/05/08 01:58:38;;;;;;;7.78;4.35;;;1.90;99.90;;;0.26;84.47;97758.97;4965231;28;20043;-66
2021/05/08 02:01:24;;;;;;;8.13;4.47;;;1.80;99.90;;;0.23;84.58;97763.19;4943138;28;20044;-66
2021/05/08 02:04:12;;;;;;;7.55;4.40;;;1.80;99.90;;;0.20;85.15;97753.84;4944872;28;20040;-67
2021/05/08 02:07:00;;;;;;;9.43;4.38;;;1.80;99.90;;;0.16;84.88;97754.69;4937674;29;20124;-66
2021/05/08 02:09:47;;;;;;;8.85;4.60;;;1.70;99.90;;;0.13;84.81;97754.69;4938051;29;20035;-66
2021/05/08 02:12:39;;;;;;;7.85;3.75;;;1.70;99.90;;;0.06;85.23;97750.41;4951245;28;20122;-66
2021/05/08 02:15:26;;;;;;;6.93;3.97;;;1.70;99.90;;;0.05;85.13;97752.13;4952240;28;20043;-66
2021/05/08 02:18:13;;;;;;;6.50;3.83;;;1.70;99.90;;;0.03;85.59;97753.81;4937195;29;20047;-66
2021/05/08 02:20:59;;;;;;;7.72;3.92;;;1.70;99.90;;;-0.03;85.50;97757.19;4938559;28;20043;-66
2021/05/08 02:23:46;;;;;;;6.28;3.83;;;1.60;99.90;;;-0.06;85.71;97757.19;4949479;28;20087;-66
2021/05/08 02:26:33;;;;;;;7.03;4.22;;;1.60;99.90;;;-0.03;85.64;97749.53;4951326;28;20142;-66
2021/05/08 02:29:20;;;;;;;9.00;4.97;;;1.60;99.90;;;-0.06;85.32;97746.16;4952269;29;20431;-66
2021/05/08 02:32:07;;;;;;;8.90;4.30;;;1.50;99.90;;;-0.14;85.71;97756.31;4942602;28;20096;-66
2021/05/08 02:34:54;;;;;;;8.10;4.30;;;1.50;99.90;;;-0.11;85.84;97758.06;4944835;28;20038;-66
2021/05/08 02:37:42;;;;;;;9.98;4.10;;;1.50;99.90;;;-0.15;85.71;97762.28;4947603;28;20459;-66
2021/05/08 02:40:32;;;;;;;6.75;4.32;;;1.50;99.90;;;-0.16;86.14;97749.50;4938296;29;20083;-67
2021/05/08 02:43:19;;;;;;;8.82;4.45;;;1.40;99.90;;;-0.18;86.01;97741.88;4945643;28;20047;-66
2021/05/08 02:46:06;;;;;;;10.23;5.22;;;1.40;99.90;;;-0.24;86.04;97739.28;4932790;29;20118;-66
2021/05/08 02:48:53;;;;;;;8.27;5.07;;;1.40;99.90;;;-0.22;85.94;97753.75;4919107;29;20127;-66
2021/05/08 02:51:39;;;;;;;10.10;4.90;;;1.40;99.90;;;-0.23;86.10;97746.09;4936692;28;20114;-66
2021/05/08 02:54:26;;;;;;;7.95;4.75;;;1.40;99.90;;;-0.27;86.46;97750.34;4946545;28;20461;-66
2021/05/08 02:57:13;;;;;;;11.25;5.32;;;1.40;99.90;;;-0.21;85.73;97739.28;4946698;28;20138;-66
2021/05/08 03:00:00;;;;;;;8.98;5.03;;;1.30;99.90;;;-0.27;86.03;97735.03;4945192;29;20110;-66
2021/05/08 03:02:47;;;;;;;8.25;4.38;;;1.30;99.90;;;-0.21;85.79;97746.94;4938515;29;20101;-66
2021/05/08 03:05:34;;;;;;;8.02;3.88;;;1.30;99.90;;;-0.42;86.20;97740.94;4951229;28;20408;-66
2021/05/08 03:08:21;;;;;;;8.52;4.85;;;1.20;99.90;;;-0.42;86.38;97740.94;4949228;28;20052;-66
2021/05/08 03:11:08;;;;;;;6.93;4.43;;;1.20;99.90;;;-0.28;85.67;97740.13;4951339;29;20503;-66
2021/05/08 03:13:54;;;;;;;9.27;4.60;;;1.10;99.90;;;-0.33;85.14;97747.75;4950510;28;20055;-66
2021/05/08 03:16:43;;;;;;;9.57;4.15;;;1.00;99.90;;;-0.49;85.98;97746.00;4945418;28;20051;-66
2021/05/08 03:19:50;;;;;;;7.15;3.90;;;0.90;99.90;;;-0.43;86.37;97744.34;4950742;28;20334;-66
2021/05/08 03:22:37;;;;;;;7.10;4.43;;;0.90;99.90;;;-0.19;84.66;97746.97;4935107;28;20402;-66
2021/05/08 03:25:24;;;;;;;9.25;3.90;;;0.90;99.90;;;-0.12;83.74;97744.41;4930035;29;20044;-66
2021/05/08 03:28:11;;;;;;;7.32;4.00;;;0.90;99.90;;;-0.39;85.15;97742.63;4950107;28;20162;-66
2021/05/08 03:30:57;;;;;;;7.20;4.28;;;0.80;99.90;;;-0.30;84.73;97734.16;4939893;28;20123;-66
2021/05/08 03:33:44;;;;;;;8.90;4.72;;;0.80;99.90;;;-0.34;85.28;97735.00;4927491;28;20042;-66
2021/05/08 03:36:31;;;;;;;12.27;5.32;;;0.70;99.90;;;-0.36;85.12;97729.06;4933165;29;20066;-66
2021/05/08 03:39:19;;;;;;;8.60;5.10;;;0.70;99.90;;;-0.29;84.15;97721.44;4946775;28;20054;-66
2021/05/08 03:42:06;;;;;;;12.65;5.70;;;0.70;99.90;;;-0.34;84.61;97715.47;4937044;29;20039;-66
2021/05/08 03:44:53;;;;;;;11.38;5.90;;;0.70;99.90;;;-0.34;84.93;97709.50;4947522;28;20040;-66
2021/05/08 03:47:40;;;;;;;6.75;4.57;;;0.70;99.90;;;-0.13;83.56;97711.28;4943188;28;20598;-66
2021/05/08 03:50:27;;;;;;;10.88;4.68;;;0.80;99.90;;;-0.29;83.95;97712.94;4933822;28;20416;-66
2021/05/08 03:53:14;;;;;;;7.88;4.30;;;0.80;99.90;;;-0.39;85.38;97716.28;4948983;28;20606;-66
2021/05/08 03:56:02;;;;;;;7.90;3.97;;;0.80;99.90;;;-0.18;84.03;97715.47;4950609;28;20077;-66
2021/05/08 03:58:49;;;;;;;7.35;3.95;;;0.70;99.90;;;-0.20;84.31;97710.41;4947394;29;20091;-66
2021/05/08 04:01:35;;;;;;;9.02;5.03;;;0.80;99.90;;;-0.44;85.32;97714.56;4942460;28;20102;-66
2021/05/08 04:04:23;;;;;;;8.27;4.30;;;0.80;99.90;;;-0.47;85.89;97712.03;4949683;28;21336;-66
2021/05/08 04:07:10;;;;;;;8.32;4.15;;;0.90;99.90;;;-0.32;85.35;97716.31;4951573;28;20194;-66
2021/05/08 04:09:57;;;;;;;7.57;4.18;;;0.90;99.90;;;-0.31;85.03;97722.28;4947697;28;20044;-66
2021/05/08 04:12:44;;;;;;;8.70;4.60;;;0.80;99.90;;;-0.44;85.96;97724.78;4925682;29;20051;-66
2021/05/08 04:15:31;;;;;;;8.02;4.53;;;0.90;99.90;;;-0.34;85.45;97729.91;4952590;28;20153;-66
2021/05/08 04:18:19;;;;;;;10.43;5.88;;;0.90;99.90;;;-0.45;85.73;97729.88;4953959;28;20133;-66
2021/05/08 04:21:06;;;;;;;15.90;8.68;;;0.90;99.90;;;-0.39;85.68;97719.69;4940635;29;20044;-66
2021/05/08 04:23:53;;;;;;;17.45;9.43;;;0.90;99.90;;;-0.45;86.07;97717.13;4954184;28;20086;-66
2021/05/08 04:26:39;;;;;;;12.40;7.43;;;0.90;99.90;;;-0.39;85.30;97716.28;4953414;28;20043;-66
2021/05/08 04:29:26;;;;;;;10.18;6.05;;;0.90;99.90;;;-0.44;85.40;97721.38;4947787;29;20104;-66
2021/05/08 04:32:13;;;;;;;7.45;4.60;;;1.00;99.90;;;-0.49;85.74;97712.88;4945878;28;20179;-66
2021/05/08 04:35:00;;;;;;;7.45;4.30;;;1.00;99.90;;;-0.51;85.87;97722.19;4932344;28;20050;-66
2021/05/08 04:37:47;;;;;;;6.88;3.90;;;1.00;99.90;;;-0.35;85.71;97720.56;4935236;29;20047;-66
2021/05/08 04:40:34;;;;;;;8.77;4.28;;;1.00;99.90;;;-0.56;85.86;97722.19;4952588;28;20161;-66
2021/05/08 04:43:21;;;;;;;7.05;3.50;;;1.00;99.90;;;-0.28;84.80;97720.56;4945961;29;20051;-66
2021/05/08 04:46:08;;;;;;;8.55;4.10;;;1.00;99.90;;;-0.12;83.84;97721.44;4940560;28;20550;-66
2021/05/08 04:48:55;;;;;;;8.25;4.18;;;1.00;99.90;;;-0.15;83.49;97723.16;4933032;29;20529;-66
2021/05/08 04:51:42;;;;;;;7.38;3.90;;;0.90;99.90;;;-0.06;83.66;97725.72;4953662;29;20050;-66
2021/05/08 04:54:28;;;;;;;7.90;3.33;;;1.00;99.90;;;0.01;82.79;97729.16;4953252;28;20043;-66
2021/05/08 04:57:15;;;;;;;7.38;3.78;;;1.10;99.90;;;-0.11;83.57;97723.19;4929393;29;20476;-66
2021/05/08 05:00:03;;;;;;;7.65;4.13;;;1.20;99.90;;;-0.26;84.03;97718.88;4935603;29;20048;-66
2021/05/08 05:02:50;;;;;;;8.48;3.75;;;1.30;99.90;;;-0.06;83.35;97707.88;4952819;29;20039;-66
2021/05/08 05:05:39;;;;;;;6.82;3.90;;;1.30;99.90;;;-0.05;83.09;97717.22;4945507;28;20103;-66
2021/05/08 05:08:26;;;;;;;6.53;4.00;;;1.40;99.90;;;0.25;82.17;97718.09;4956331;28;20039;-66
2021/05/08 05:11:14;;;;;;;9.55;4.60;;;1.30;99.90;;;0.22;82.19;97716.41;4952293;29;20070;-66
2021/05/08 05:14:01;;;;;;;8.00;3.95;;;1.40;99.90;;;0.43;81.66;97713.00;4952738;28;20526;-66
2021/05/08 05:16:48;;;;;;;9.60;4.35;;;1.60;99.90;;;0.41;81.66;97718.13;4943346;28;20047;-66
2021/05/08 05:19:35;;;;;;;8.07;3.78;;;1.70;99.90;;;0.82;80.73;97717.25;4937848;29;20058;-66
2021/05/08 05:22:21;;;;;;;9.05;4.68;;;1.90;99.90;;;1.08;79.82;97720.59;4951942;28;20393;-66
2021/05/08 05:25:09;;;;;;;7.43;4.57;;;2.10;99.90;;;1.13;79.55;97713.75;4935996;28;20140;-66
2021/05/08 05:27:56;;;;;;;11.27;8.02;;;2.40;99.90;;;1.23;79.29;97716.28;4938880;29;20527;-67
2021/05/08 05:30:43;;;;;;;10.50;6.40;;;2.40;99.90;;;1.50;78.49;97716.16;4953129;29;20150;-66
2021/05/08 05:33:30;;;;;;;8.93;5.65;;;2.60;99.90;;;1.75;78.29;97722.03;4950153;28;20059;-66
2021/05/08 05:36:17;;;;;;;10.13;4.75;;;2.80;99.90;;;2.03;77.36;97715.03;4950230;29;20059;-66
2021/05/08 05:39:04;;;;;;;9.23;4.85;;;3.20;99.90;;;2.27;76.73;97698.66;4920076;29;20052;-66
2021/05/08 05:41:50;;;;;;;10.27;5.32;;;3.50;99.90;;;2.16;75.79;97710.69;4941202;28;20047;-66
2021/05/08 05:44:37;;;;;;;9.45;5.05;;;3.80;99.90;;;2.28;76.47;97711.47;4936652;28;20493;-66
2021/05/08 05:47:26;;;;;;;12.20;5.32;;;3.90;99.90;;;2.48;75.23;97716.41;4952162;29;20520;-66
2021/05/08 05:50:14;;;;;;;12.80;4.32;;;4.00;99.90;;;2.77;74.90;97710.19;4952116;29;20049;-66
2021/05/08 05:53:02;;;;;;;7.88;4.15;;;4.20;99.90;;;3.17;73.83;97703.78;4955749;28;20046;-66
2021/05/08 05:55:48;;;;;;;11.23;4.15;;;4.30;99.90;;;3.43;73.34;97704.34;4940498;28;20059;-66
2021/05/08 05:58:35;;;;;;;13.38;4.22;;;4.40;99.90;;;3.64;72.75;97702.38;4933833;29;20051;-66
2021/05/08 06:01:22;;;;;;;8.10;4.13;;;4.70;99.90;;;3.85;71.97;97701.22;4922801;29;20048;-66
2021/05/08 06:04:09;;;;;;;7.53;3.38;;;5.10;99.90;;;3.69;71.24;97693.72;4939234;28;20039;-66
2021/05/08 06:06:56;;;;;;;6.80;3.80;;;5.20;99.90;;;3.97;70.54;97683.09;4951158;29;20118;-66
2021/05/08 06:09:43;;;;;;;7.32;4.35;;;5.20;99.90;;;4.27;70.79;97689.50;4948179;28;20147;-66
2021/05/08 06:12:29;;;;;;;8.40;4.35;;;5.40;99.90;;;4.43;70.66;97689.25;4933133;29;20189;-66
2021/05/08 06:15:16;;;;;;;7.22;4.40;;;5.60;99.90;;;4.84;69.76;97682.56;4934234;29;20052;-66
2021/05/08 06:18:03;;;;;;;10.10;5.00;;;5.90;99.90;;;4.95;68.54;97678.03;4946920;29;20555;-66
2021/05/08 06:20:50;;;;;;;7.90;4.68;;;6.10;99.90;;;5.18;66.73;97675.91;4934170;29;20062;-66
2021/05/08 06:23:37;;;;;;;7.72;3.97;;;6.40;99.90;;;5.94;62.88;97674.31;4936792;28;20055;-66
2021/05/08 06:26:24;;;;;;;9.23;4.07;;;6.90;99.90;;;6.46;61.56;97666.22;4936869;28;20066;-66
2021/05/08 06:29:10;;;;;;;5.25;2.88;;;7.50;99.90;;;7.02;57.92;97673.38;4951149;28;20051;-66
2021/05/08 06:31:57;;;;;;;6.72;3.10;;;8.10;99.90;;;7.35;55.77;97672.53;4950557;28;20380;-66
2021/05/08 06:34:44;;;;;;;5.10;2.20;;;8.60;99.90;;;7.67;52.18;97681.94;4952975;28;20532;-66
2021/05/08 06:37:33;;;;;;;5.50;2.50;;;9.00;99.90;;;7.99;51.52;97680.13;4948098;29;20423;-66
2021/05/08 06:40:20;;;;;;;6.13;2.30;;;9.40;99.90;;;8.34;50.80;97684.19;4921760;29;20071;-66
2021/05/08 06:43:07;;;;;;;5.93;2.08;;;9.40;99.90;;;8.58;49.18;97675.66;4936615;28;20035;-67
2021/05/08 06:45:54;;;;;;;5.72;2.53;;;9.60;99.90;;;8.54;50.28;97675.81;4944877;28;20210;-66
2021/05/08 06:48:41;;;;;;;5.57;2.40;;;9.80;99.90;;;8.65;49.46;97676.31;4933496;29;20099;-67
2021/05/08 06:51:29;;;;;;;6.75;2.50;;;10.00;99.90;;;8.83;50.49;97671.41;4936740;28;20527;-66
2021/05/08 06:54:07;;;;;;;3.55;1.88;;;10.10;99.90;;;9.01;48.30;97673.38;4940806;28;20074;-66
2021/05/08 06:56:36;;;;;;;5.70;2.30;;;10.00;99.90;;;8.96;48.11;97665.75;4929657;29;20107;-66
2021/05/08 06:59:05;;;;;;;4.22;1.83;;;10.00;99.90;;;9.30;47.94;97663.72;4932680;29;20043;-66
2021/05/08 07:01:32;;;;;;;5.10;1.92;;;10.00;99.90;;;9.19;47.22;97661.50;4938151;28;20058;-66
2021/05/08 07:03:58;;;;;;;5.15;1.95;;;10.20;99.90;;;9.34;47.55;97667.88;4921886;28;20472;-66
2021/05/08 07:06:48;;;;;;;4.88;1.85;;;10.30;99.90;;;9.38;46.95;97667.72;4951583;29;20533;-66
2021/05/08 07:09:35;;;;;;;4.93;1.75;;;10.50;99.90;;;9.78;46.27;97674.03;4937728;28;20155;-66
2021/05/08 07:12:22;;;;;;;7.95;1.83;;;10.60;99.90;;;9.84;45.87;97671.19;4939930;29;20162;-67
2021/05/08 07:15:10;;;;;;;4.50;1.70;;;10.80;99.90;;;10.12;45.54;97661.50;4942223;29;20527;-66
2021/05/08 07:18:01;;;;;;;5.63;1.80;;;11.00;99.90;;;10.36;46.14;97663.16;4937867;29;20528;-66
2021/05/08 07:20:49;;;;;;;3.22;1.50;;;11.20;99.90;;;10.48;44.77;97661.81;4932185;29;20123;-67
2021/05/08 07:23:36;;;;;;;5.20;1.63;;;11.40;99.90;;;10.66;45.63;97658.44;4931404;29;20623;-66
2021/05/08 07:26:22;;;;;;;4.97;1.52;;;11.60;99.90;;;10.97;44.69;97658.91;4950987;29;20051;-66
2021/05/08 07:29:09;;;;;;;5.50;1.60;;;11.80;99.90;;;11.16;44.95;97670.19;4951082;29;20059;-66
2021/05/08 07:31:56;;;;;;;4.22;1.40;;;12.00;99.90;;;11.42;44.68;97665.59;4949793;29;20511;-66
2021/05/08 07:34:43;;;;;;;7.40;2.25;;;12.20;99.90;;;11.64;43.92;97665.50;4923483;29;20066;-67
2021/05/08 07:37:29;;;;;;;4.38;1.92;;;12.40;99.90;;;11.85;45.17;97666.25;4950182;29;20039;-67
2021/05/08 07:40:16;;;;;;;6.07;3.35;;;12.80;99.90;;;11.61;43.57;97669.06;4948073;29;20090;-67
2021/05/08 07:43:03;;;;;;;10.43;3.30;;;13.00;99.90;;;10.74;43.67;97663.34;4951147;28;20050;-67
2021/05/08 07:45:50;;;;;;;13.63;4.45;;;12.90;99.90;;;11.22;44.50;97662.16;4940850;29;20050;-66
2021/05/08 07:48:37;;;;;;;12.00;4.95;;;12.70;99.90;;;10.98;44.75;97652.81;4953825;29;20050;-67
2021/05/08 07:51:24;;;;;;;11.02;5.05;;;12.60;99.90;;;11.33;44.60;97659.03;4939935;29;20063;-66
2021/05/08 07:54:11;;;;;;;7.90;3.28;;;12.70;99.90;;;11.70;42.95;97653.06;4958960;28;20424;-66
2021/05/08 07:56:58;;;;;;;13.13;5.85;;;12.80;99.90;;;11.22;43.19;97656.06;4954996;28;20151;-67
2021/05/08 07:59:45;;;;;;;7.10;3.10;;;12.90;99.90;;;11.10;43.06;97650.50;4953011;29;20130;-66
2021/05/08 08:02:32;;;;;;;5.47;2.47;;;13.10;99.90;;;11.92;42.78;97652.91;4953475;29;20186;-67
2021/05/08 08:05:19;;;;;;;8.63;2.72;;;13.20;99.90;;;12.09;42.34;97646.09;4953537;29;20054;-66
2021/05/08 08:08:06;;;;;;;6.38;2.42;;;13.50;99.90;;;12.36;40.93;97651.72;4954279;29;20063;-66
2021/05/08 08:10:47;;;;;;;5.55;2.05;;;13.80;99.50;;;12.10;41.85;97659.00;4937742;29;20521;-66
2021/05/08 08:13:14;;;;;;;4.85;1.73;;;13.80;99.40;;;12.86;43.19;97648.34;4936567;29;20055;-66
2021/05/08 08:16:01;;;;;;;6.18;1.90;;;14.00;99.90;;;12.87;42.20;97642.25;4946743;29;20063;-67
2021/05/08 08:18:47;;;;;;;3.00;1.33;;;13.80;99.90;;;12.44;42.16;97644.38;4938909;29;20516;-67
2021/05/08 08:21:34;;;;;;;4.75;1.17;;;13.50;99.90;;;11.40;42.47;97647.47;4954050;29;20043;-67
2021/05/08 08:24:21;;;;;;;4.05;1.33;;;13.40;99.10;;;12.37;42.92;97639.56;4953932;29;20083;-67
2021/05/08 08:27:09;;;;;;;3.97;1.35;;;13.40;99.90;;;12.89;43.15;97636.97;4934796;29;20051;-66
2021/05/08 08:29:57;;;;;;;6.85;4.03;;;13.70;99.90;;;12.77;43.70;97631.47;4931821;29;20048;-67
2021/05/08 08:32:44;;;;;;;2.72;0.90;;;14.10;99.90;;;12.08;42.24;97629.63;4928474;29;20133;-67
2021/05/08 08:35:30;;;;;;;3.15;1.08;;;14.20;98.80;;;12.92;42.80;97626.38;4933372;29;20523;-67
2021/05/08 08:38:24;;;;;;;;;;;14.00;99.90;;;12.24;43.68;97624.53;4937120;28;20151;-67
2021/05/08 08:41:12;;;;;;;4.18;1.10;;;13.90;99.90;;;12.32;42.26;97617.19;4943507;29;19973;-65
2021/05/08 08:43:59;;;;;;;4.32;1.45;;;13.90;99.20;;;12.67;42.14;97625.00;4953828;29;20128;-66
2021/05/08 08:46:47;;;;;;;4.82;1.77;;;14.00;99.40;;;12.91;40.88;97625.53;4940169;29;20092;-66
2021/05/08 08:49:35;;;;;;;5.18;1.40;;;14.20;98.60;;;13.26;39.54;97625.47;4939936;29;20039;-66
2021/05/08 08:52:22;;;;;;;7.22;3.20;;;14.50;98.20;;;12.27;41.83;97619.19;4940036;29;20046;-66
2021/05/08 08:55:10;;;;;;;7.93;3.38;;;14.70;97.80;;;12.80;41.04;97616.59;4938134;28;20435;-66
2021/05/08 08:57:57;;;;;;;6.35;1.40;;;14.40;97.70;;;12.74;41.38;97612.53;4933506;29;20439;-66
2021/05/08 09:00:44;;;;;;;9.52;3.17;;;14.30;98.20;;;13.09;41.28;97613.31;4926072;29;20055;-66
2021/05/08 09:03:32;;;;;;;9.55;2.95;;;14.50;98.60;;;12.95;41.00;97611.44;4934529;29;20047;-66
2021/05/08 09:06:20;;;;;;;5.55;1.70;;;14.80;97.60;;;14.51;40.46;97601.22;4920150;29;20047;-66
2021/05/08 09:09:12;;;;;;;4.45;2.08;;;15.40;98.50;;;15.18;38.80;97595.53;4927457;28;20039;-67
2021/05/08 09:11:59;;;;;;;5.15;1.70;;;16.20;97.40;;;16.25;36.14;97594.03;4925133;29;20051;-67
2021/05/08 09:14:50;;;;;;;6.38;1.38;;;16.50;95.90;;;14.15;36.62;97591.94;4934672;29;20212;-65
2021/05/08 09:17:44;;;;;;;5.22;1.25;;;16.80;92.90;;;13.06;37.32;97603.03;4937366;29;20047;-65
2021/05/08 09:20:48;;;;;;;4.75;1.58;;;16.60;91.40;;;14.54;39.37;97593.22;4948910;29;20055;-65
2021/05/08 09:23:39;;;;;;;6.63;1.30;;;16.70;93.40;;;16.60;36.38;97587.41;4953018;29;20456;-65
2021/05/08 09:26:38;;;;;;;3.67;1.23;;;17.50;93.40;;;17.52;34.07;97575.88;4953668;29;20158;-65
2021/05/08 09:29:24;;;;;;;7.53;3.17;;;18.30;91.60;;;16.45;34.51;97576.16;4936215;29;20416;-65
2021/05/08 09:32:11;;;;;;;2.78;0.95;;;17.80;89.90;;;16.58;34.80;97566.56;4934103;29;20056;-65
2021/05/08 09:35:20;;;;;;;10.00;4.28;;;17.90;90.10;;;15.32;33.20;97565.91;4936513;29;20051;-65
2021/05/08 09:38:08;;;;;;;65.18;47.05;;;18.20;84.40;;;14.92;37.11;97556.13;4930030;29;20035;-65
2021/05/08 09:41:00;;;;;;;2.58;1.00;;;17.70;87.20;;;16.32;35.80;97549.94;4944209;28;20040;-65
2021/05/08 09:43:47;;;;;;;3.17;1.30;;;17.80;90.00;;;16.22;36.16;97547.09;4932269;29;20051;-65
2021/05/08 09:46:33;;;;;;;5.75;3.78;;;18.00;89.00;;;15.18;34.55;97551.09;4947037;29;20043;-65
2021/05/08 09:49:21;;;;;;;3.60;0.88;;;17.80;82.00;;;14.99;34.78;97554.84;4948694;29;20547;-64
2021/05/08 09:52:07;;;;;;;2.30;1.35;;;17.20;82.30;;;15.47;34.97;97549.28;4939676;28;20596;-65
2021/05/08 09:55:07;;;;;;;3.72;0.80;;;17.20;84.50;;;14.78;34.16;97556.97;4953144;28;20514;-66
2021/05/08 09:58:04;;;;;;;5.95;1.10;;;17.60;80.20;;;13.67;34.84;97559.00;4949178;28;20511;-66
2021/05/08 10:00:53;;;;;;;3.20;0.88;;;17.80;77.30;;;15.76;32.63;97555.31;4949192;28;20106;-66
2021/05/08 10:03:40;;;;;;;3.60;0.90;;;17.60;78.40;;;15.19;33.38;97558.84;4940782;28;20035;-66
2021/05/08 10:06:36;;;;;;;3.72;0.80;;;18.00;77.70;;;15.94;33.03;97542.81;4938183;29;20103;-66
2021/05/08 10:09:22;;;;;;;2.72;0.70;;;18.10;78.40;;;16.62;32.57;97539.19;4933297;29;20087;-65
2021/05/08 10:12:18;;;;;;;3.85;0.77;;;18.40;77.40;;;17.38;30.77;97540.13;4946556;29;20054;-66
2021/05/08 10:15:06;;;;;;;1.92;0.52;;;19.00;78.70;;;17.40;30.49;97539.97;4927580;29;20055;-66
2021/05/08 10:17:53;;;;;;;2.33;1.10;;;19.10;74.40;;;16.97;31.80;97509.75;4919787;29;20407;-66
2021/05/08 10:20:42;;;;;;;2.67;0.80;;;19.60;73.40;;;17.21;32.19;97511.59;4947944;28;20059;-66
2021/05/08 10:23:30;;;;;;;1.88;0.82;;;19.50;74.70;;;14.54;33.85;97522.69;4944255;29;20568;-65
2021/05/08 10:26:18;;;;;;;2.20;0.80;;;18.80;70.80;;;15.65;34.10;97514.09;4936537;29;20043;-65
2021/05/08 10:29:05;;;;;;;2.58;0.80;;;17.90;75.00;;;16.14;33.98;97514.50;4912967;29;20243;-66
2021/05/08 10:31:54;;;;;;;4.93;2.85;;;17.60;77.90;;;16.57;34.82;97503.75;4916512;29;20476;-65
2021/05/08 10:35:05;;;;;;;6.63;1.75;;;17.80;80.30;;;18.04;33.88;97495.13;4924901;29;20055;-66
2021/05/08 10:38:13;;;;;;;3.78;1.20;;;19.20;81.40;;;16.12;34.45;97495.41;4947518;28;20400;-66
2021/05/08 10:41:07;;;;;;;2.58;0.80;;;19.60;74.30;;;17.80;32.64;97501.22;4947166;29;20507;-66
2021/05/08 10:43:40;;;;;;;2.42;0.90;;;19.60;75.70;;;17.71;32.18;97500.09;4924690;29;20052;-66
2021/05/08 10:46:08;;;;;;;1.90;0.70;;;20.00;74.40;;;18.57;31.05;97498.16;4927938;29;20071;-66
2021/05/08 10:48:35;;;;;;;2.78;0.80;;;20.40;73.00;;;19.01;30.67;97493.91;4944049;29;20067;-66
2021/05/08 10:52:08;;;;;;;2.50;0.68;;;20.90;73.30;;;18.46;30.41;97477.94;4940166;29;20043;-66
2021/05/08 10:54:53;;;;;;;5.70;1.75;;;20.40;69.60;;;17.78;30.46;97475.06;4925353;29;20507;-66
2021/05/08 10:57:38;;;;;;;14.05;9.88;;;20.00;70.00;;;16.12;32.26;97462.22;4931202;29;20130;-66
2021/05/08 11:00:26;;;;;;;3.58;1.42;;;19.10;68.70;;;15.36;33.07;97492.41;4951186;29;20198;-66
2021/05/08 11:03:15;;;;;;;3.40;1.10;;;18.20;68.80;;;16.04;32.82;97488.09;4947676;29;20099;-66
2021/05/08 11:06:13;;;;;;;3.60;0.70;;;17.80;71.50;;;15.85;34.27;97472.72;4948417;29;20492;-66
2021/05/08 11:09:00;;;;;;;4.80;0.90;;;17.80;72.60;;;15.83;32.93;97485.94;4939742;29;20092;-65
2021/05/08 11:11:50;;;;;;;2.13;0.80;;;18.20;71.60;;;16.64;32.85;97470.94;4937224;28;20077;-66
2021/05/08 11:14:55;;;;;;;2.20;0.70;;;18.20;72.70;;;17.35;33.90;97459.81;4936972;29;20456;-66
2021/05/08 11:18:01;;;;;;;2.47;1.13;;;19.00;75.80;;;17.63;31.48;97465.72;4944505;28;20062;-66
2021/05/08 11:20:48;;;;;;;3.38;1.85;;;19.70;71.00;;;15.99;33.71;97474.47;4930189;29;20126;-66
2021/05/08 11:23:52;;;;;;;1.65;0.70;;;20.00;69.40;;;17.00;31.96;97458.88;4941218;29;20039;-66
2021/05/08 11:26:44;;;;;;;2.38;0.90;;;19.40;70.40;;;16.26;33.26;97461.28;4935560;28;20047;-66
2021/05/08 11:29:31;;;;;;;1.45;0.70;;;19.20;70.30;;;17.14;32.81;97454.31;4919971;29;20063;-66
2021/05/08 11:32:18;;;;;;;2.40;0.90;;;19.60;70.70;;;15.68;35.13;97461.56;4946500;29;20095;-66
2021/05/08 11:35:05;;;;;;;3.72;0.80;;;19.10;70.60;;;16.89;32.53;97452.59;4933280;28;20123;-66
2021/05/08 11:37:52;;;;;;;1.77;0.70;;;18.60;71.10;;;16.68;34.16;97457.53;4946313;29;20058;-65
2021/05/08 11:40:39;;;;;;;2.50;0.90;;;18.20;74.20;;;15.38;35.17;97467.00;4944068;29;20313;-66
2021/05/08 11:43:27;;;;;;;6.03;0.77;;;17.60;73.20;;;15.15;36.17;97460.63;4959001;28;20160;-66
2021/05/08 11:46:30;;;;;;;5.38;1.00;;;17.10;74.40;;;14.62;36.29;97460.41;4946896;28;20144;-66
2021/05/08 11:49:37;;;;;;;2.38;0.70;;;17.20;74.00;;;15.48;34.45;97446.31;4941655;29;20051;-65
2021/05/08 11:52:38;;;;;;;2.72;0.75;;;16.90;74.30;;;14.92;35.95;97456.00;4914418;29;20539;-65